createdAt,value
2022-11-09T00:00:30.073Z,99.90
2022-11-09T00:02:32.153Z,99.90
2022-11-09T00:04:33.945Z,99.90
2022-11-09T00:06:36.133Z,99.90
2022-11-09T00:08:39.291Z,99.90
2022-11-09T00:10:40.976Z,99.90
2022-11-09T00:12:42.704Z,99.90
2022-11-09T00:14:44.437Z,99.90
2022-11-09T00:16:46.192Z,99.90
2022-11-09T00:18:48.492Z,99.90
2022-11-09T00:20:50.200Z,99.90
2022-11-09T00:22:51.955Z,99.90
2022-11-09T00:24:53.777Z,99.90
2022-11-09T00:26:55.464Z,99.90
2022-11-09T00:28:57.234Z,99.90
2022-11-09T00:31:07.243Z,99.90
2022-11-09T00:33:11.122Z,99.90
2022-11-09T00:35:12.866Z,99.90
2022-11-09T00:37:14.672Z,99.90
2022-11-09T00:39:16.510Z,99.90
2022-11-09T00:41:18.956Z,99.90
2022-11-09T00:43:21.124Z,99.90
2022-11-09T00:45:23.235Z,99.90
2022-11-09T00:47:24.918Z,99.90
2022-11-09T00:49:26.612Z,99.90
2022-11-09T00:51:28.313Z,99.90
2022-11-09T00:53:31.001Z,99.90
2022-11-09T00:55:32.607Z,99.90
2022-11-09T00:57:34.320Z,99.90
2022-11-09T00:59:35.999Z,99.90
2022-11-09T01:01:37.771Z,99.90
2022-11-09T01:03:40.880Z,99.90
2022-11-09T01:05:42.723Z,99.90
2022-11-09T01:07:44.444Z,99.90
2022-11-09T01:09:46.139Z,99.90
2022-11-09T01:11:47.806Z,99.90
2022-11-09T01:13:49.682Z,99.90
2022-11-09T01:15:53.327Z,99.90
2022-11-09T01:17:55.020Z,99.90
2022-11-09T01:19:56.751Z,99.90
2022-11-09T01:21:58.531Z,99.90
2022-11-09T01:24:01.623Z,99.90
2022-11-09T01:26:09.092Z,99.90
2022-11-09T01:28:12.039Z,99.90
2022-11-09T01:30:14.089Z,99.90
2022-11-09T01:32:15.835Z,99.90
2022-11-09T01:34:17.647Z,99.90
2022-11-09T01:36:21.765Z,99.90
2022-11-09T01:38:23.460Z,99.90
2022-11-09T01:40:26.634Z,99.90
2022-11-09T01:42:30.005Z,99.90
2022-11-09T01:44:33.682Z,99.90
2022-11-09T01:47:07.458Z,99.90
2022-11-09T01:49:28.368Z,99.90
2022-11-09T01:51:50.985Z,99.90
2022-11-09T01:53:58.576Z,99.90
2022-11-09T01:56:05.116Z,99.90
2022-11-09T01:58:14.660Z,99.90
2022-11-09T02:00:17.548Z,99.90
2022-11-09T02:02:19.815Z,99.90
2022-11-09T02:04:27.380Z,99.90
2022-11-09T02:06:31.598Z,99.90
2022-11-09T02:08:33.361Z,99.90
2022-11-09T02:11:00.537Z,99.90
2022-11-09T02:13:03.538Z,99.90
2022-11-09T02:15:08.554Z,99.90
2022-11-09T02:17:11.039Z,99.90
2022-11-09T02:19:12.909Z,99.90
2022-11-09T02:21:14.668Z,99.90
2022-11-09T02:23:17.055Z,99.90
2022-11-09T02:25:19.201Z,99.90
2022-11-09T02:27:21.695Z,99.90
2022-11-09T02:29:31.831Z,99.90
2022-11-09T02:31:39.264Z,99.90
2022-11-09T02:33:52.599Z,99.90
2022-11-09T02:35:54.345Z,99.90
2022-11-09T02:37:56.109Z,99.90
2022-11-09T02:40:00.130Z,99.90
2022-11-09T02:42:28.298Z,99.90
2022-11-09T02:44:40.620Z,99.90
2022-11-09T02:46:42.539Z,99.90
2022-11-09T02:48:44.208Z,99.90
2022-11-09T02:50:46.081Z,99.90
2022-11-09T02:52:47.761Z,99.90
2022-11-09T02:54:49.584Z,99.90
2022-11-09T02:56:51.312Z,99.90
2022-11-09T02:58:53.068Z,99.90
2022-11-09T03:00:54.813Z,99.90
2022-11-09T03:02:56.793Z,99.90
2022-11-09T03:04:58.487Z,99.90
2022-11-09T03:07:00.241Z,99.90
2022-11-09T03:09:07.268Z,99.90
2022-11-09T03:11:09.218Z,99.90
2022-11-09T03:13:10.877Z,99.90
2022-11-09T03:15:12.602Z,99.90
2022-11-09T03:17:14.350Z,99.90
2022-11-09T03:19:16.174Z,99.90
2022-11-09T03:21:18.626Z,99.90
2022-11-09T03:23:20.685Z,99.90
2022-11-09T03:25:22.648Z,99.90
2022-11-09T03:27:24.374Z,99.90
2022-11-09T03:29:26.061Z,99.90
2022-11-09T03:31:27.742Z,99.90
2022-11-09T03:33:29.409Z,99.90
2022-11-09T03:35:31.375Z,99.90
2022-11-09T03:37:33.112Z,99.90
2022-11-09T03:39:34.815Z,99.90
2022-11-09T03:41:36.572Z,99.90
2022-11-09T03:43:38.258Z,99.90
2022-11-09T03:45:40.073Z,99.90
2022-11-09T03:47:43.187Z,99.90
2022-11-09T03:49:44.894Z,99.90
2022-11-09T03:51:46.586Z,99.90
2022-11-09T03:53:48.371Z,99.90
2022-11-09T03:55:51.153Z,99.90
2022-11-09T03:57:53.024Z,99.90
2022-11-09T03:59:54.714Z,99.90
2022-11-09T04:01:56.514Z,99.90
2022-11-09T04:03:58.291Z,99.90
2022-11-09T04:06:00.252Z,99.90
2022-11-09T04:08:02.051Z,99.90
2022-11-09T04:10:05.012Z,99.90
2022-11-09T04:12:06.741Z,99.90
2022-11-09T04:14:08.475Z,99.90
2022-11-09T04:16:10.150Z,99.90
2022-11-09T04:18:15.138Z,99.90
2022-11-09T04:20:16.942Z,99.90
2022-11-09T04:22:18.636Z,99.90
2022-11-09T04:24:20.320Z,99.90
2022-11-09T04:26:22.027Z,99.90
2022-11-09T04:28:23.712Z,99.90
2022-11-09T04:30:29.507Z,99.90
2022-11-09T04:32:31.205Z,99.90
2022-11-09T04:34:32.970Z,99.90
2022-11-09T04:36:34.700Z,99.90
2022-11-09T04:38:36.636Z,99.90
2022-11-09T04:40:38.499Z,99.90
2022-11-09T04:42:40.209Z,99.90
2022-11-09T04:44:41.996Z,99.90
2022-11-09T04:46:43.772Z,99.90
2022-11-09T04:48:45.604Z,99.90
2022-11-09T04:50:47.343Z,99.90
2022-11-09T04:52:49.007Z,99.90
2022-11-09T04:54:50.680Z,99.90
2022-11-09T04:56:52.434Z,99.90
2022-11-09T04:58:54.150Z,99.90
2022-11-09T05:01:01.352Z,99.90
2022-11-09T05:03:05.085Z,99.90
2022-11-09T05:05:07.361Z,99.90
2022-11-09T05:07:09.092Z,99.90
2022-11-09T05:09:10.803Z,99.90
2022-11-09T05:11:12.509Z,99.90
2022-11-09T05:13:14.754Z,99.90
2022-11-09T05:15:16.633Z,99.90
2022-11-09T05:17:18.356Z,99.90
2022-11-09T05:19:20.085Z,99.90
2022-11-09T05:21:22.111Z,99.90
2022-11-09T05:23:42.508Z,99.90
2022-11-09T05:25:44.269Z,99.90
2022-11-09T05:27:46.012Z,99.90
2022-11-09T05:29:47.715Z,99.90
2022-11-09T05:31:52.465Z,99.90
2022-11-09T05:33:55.230Z,99.90
2022-11-09T05:35:57.582Z,99.90
2022-11-09T05:37:59.349Z,99.90
2022-11-09T05:40:01.085Z,99.90
2022-11-09T05:42:02.836Z,99.90
2022-11-09T05:44:04.686Z,99.90
2022-11-09T05:46:07.029Z,99.90
2022-11-09T05:48:09.179Z,99.90
2022-11-09T05:50:13.835Z,99.90
2022-11-09T05:52:15.559Z,99.90
2022-11-09T05:54:17.413Z,99.90
2022-11-09T05:56:19.279Z,99.90
2022-11-09T05:58:21.006Z,99.90
2022-11-09T06:00:23.150Z,99.90
2022-11-09T06:02:25.333Z,99.90
2022-11-09T06:04:27.074Z,99.90
2022-11-09T06:06:29.909Z,99.90
2022-11-09T06:08:31.827Z,99.90
2022-11-09T06:10:33.670Z,99.90
2022-11-09T06:12:35.448Z,99.90
2022-11-09T06:14:37.156Z,99.90
2022-11-09T06:16:38.856Z,99.90
2022-11-09T06:18:40.623Z,99.90
2022-11-09T06:20:42.312Z,99.90
2022-11-09T06:22:43.979Z,99.90
2022-11-09T06:24:45.738Z,99.90
2022-11-09T06:26:47.447Z,99.90
2022-11-09T06:28:49.183Z,99.90
2022-11-09T06:30:51.267Z,99.90
2022-11-09T06:33:01.632Z,99.90
2022-11-09T06:35:03.607Z,99.90
2022-11-09T06:37:05.349Z,99.90
2022-11-09T06:39:08.979Z,99.90
2022-11-09T06:41:11.013Z,99.90
2022-11-09T06:43:12.697Z,99.90
2022-11-09T06:45:14.549Z,99.90
2022-11-09T06:47:16.260Z,99.90
2022-11-09T06:49:17.946Z,99.90
2022-11-09T06:51:19.709Z,99.90
2022-11-09T06:53:21.616Z,99.90
2022-11-09T06:55:23.605Z,99.90
2022-11-09T06:57:25.298Z,99.90
2022-11-09T06:59:27.233Z,99.90
2022-11-09T07:01:29.771Z,99.90
2022-11-09T07:03:31.593Z,99.90
2022-11-09T07:05:33.407Z,99.90
2022-11-09T07:07:35.394Z,99.90
2022-11-09T07:09:37.188Z,99.90
2022-11-09T07:11:39.057Z,99.90
2022-11-09T07:13:40.871Z,99.90
2022-11-09T07:15:42.583Z,99.90
2022-11-09T07:17:44.654Z,99.90
2022-11-09T07:19:46.991Z,99.90
2022-11-09T07:21:48.722Z,99.90
2022-11-09T07:23:51.188Z,99.90
2022-11-09T07:25:53.092Z,99.90
2022-11-09T07:27:55.221Z,99.90
2022-11-09T07:29:56.960Z,99.90
2022-11-09T07:31:58.709Z,99.90
2022-11-09T07:34:04.722Z,99.90
2022-11-09T07:36:06.759Z,99.90
2022-11-09T07:38:08.549Z,99.90
2022-11-09T07:40:10.737Z,99.90
2022-11-09T07:42:12.567Z,99.90
2022-11-09T07:44:18.248Z,99.90
2022-11-09T07:46:19.980Z,99.90
2022-11-09T07:48:22.106Z,99.90
2022-11-09T07:50:24.000Z,99.90
2022-11-09T07:52:26.070Z,99.90
2022-11-09T07:54:27.842Z,99.90
2022-11-09T07:56:29.537Z,99.90
2022-11-09T07:58:31.884Z,99.90
2022-11-09T08:00:36.539Z,99.90
2022-11-09T08:02:38.556Z,99.90
2022-11-09T08:04:40.257Z,99.90
2022-11-09T08:06:42.247Z,99.90
2022-11-09T08:08:44.129Z,99.90
2022-11-09T08:10:51.341Z,99.90
2022-11-09T08:13:04.867Z,99.90
2022-11-09T08:15:07.181Z,99.90
2022-11-09T08:17:08.926Z,99.90
2022-11-09T08:19:10.737Z,99.90
2022-11-09T08:21:12.669Z,99.90
2022-11-09T08:23:17.214Z,99.90
2022-11-09T08:25:19.107Z,99.90
2022-11-09T08:27:22.820Z,99.90
2022-11-09T08:29:24.606Z,99.90
2022-11-09T08:31:26.468Z,99.90
2022-11-09T08:33:30.303Z,99.90
2022-11-09T08:35:32.032Z,99.90
2022-11-09T08:37:37.741Z,99.90
2022-11-09T08:39:39.526Z,99.90
2022-11-09T08:41:41.530Z,99.90
2022-11-09T08:43:43.274Z,99.90
2022-11-09T08:45:45.067Z,99.90
2022-11-09T08:47:47.356Z,99.90
2022-11-09T08:49:49.190Z,99.90
2022-11-09T08:51:52.195Z,99.90
2022-11-09T08:53:53.942Z,99.90
2022-11-09T08:55:55.873Z,99.90
2022-11-09T08:57:59.525Z,99.90
2022-11-09T09:00:01.341Z,99.90
2022-11-09T09:02:03.168Z,99.90
2022-11-09T09:04:05.003Z,99.90
2022-11-09T09:06:08.455Z,99.90
2022-11-09T09:08:11.666Z,99.90
2022-11-09T09:10:13.438Z,99.90
2022-11-09T09:12:15.266Z,99.90
2022-11-09T09:14:16.972Z,99.90
2022-11-09T09:16:18.992Z,99.90
2022-11-09T09:18:21.273Z,99.90
2022-11-09T09:20:23.330Z,99.90
2022-11-09T09:22:25.012Z,99.90
2022-11-09T09:24:27.082Z,99.90
2022-11-09T09:26:28.785Z,99.90
2022-11-09T09:28:30.550Z,99.90
2022-11-09T09:30:32.460Z,99.90
2022-11-09T09:32:34.218Z,99.90
2022-11-09T09:34:35.938Z,99.90
2022-11-09T09:36:38.726Z,99.90
2022-11-09T09:38:41.848Z,99.90
2022-11-09T09:40:59.547Z,99.90
2022-11-09T09:43:01.374Z,99.90
2022-11-09T09:45:11.082Z,99.90
2022-11-09T09:47:22.271Z,99.90
2022-11-09T09:49:30.089Z,99.90
2022-11-09T09:51:37.656Z,99.90
2022-11-09T09:53:47.788Z,99.90
2022-11-09T09:56:19.301Z,99.90
2022-11-09T09:58:29.533Z,99.90
2022-11-09T10:00:33.150Z,99.90
2022-11-09T10:02:37.085Z,99.90
2022-11-09T10:04:41.773Z,99.90
2022-11-09T10:06:59.389Z,99.90
2022-11-09T10:09:03.518Z,99.90
2022-11-09T10:11:13.771Z,99.90
2022-11-09T10:13:22.452Z,99.90
2022-11-09T10:15:49.479Z,99.90
2022-11-09T10:18:05.278Z,99.90
2022-11-09T10:20:34.937Z,99.90
2022-11-09T10:22:42.869Z,99.90
2022-11-09T10:25:27.895Z,99.90
2022-11-09T10:27:36.867Z,99.90
2022-11-09T10:29:46.058Z,99.90
2022-11-09T10:31:50.379Z,99.90
2022-11-09T10:33:59.706Z,99.90
2022-11-09T10:36:11.971Z,99.90
2022-11-09T10:38:21.426Z,99.90
2022-11-09T10:40:42.016Z,99.90
2022-11-09T10:42:56.084Z,99.90
2022-11-09T10:44:59.968Z,99.90
2022-11-09T10:47:11.292Z,99.90
2022-11-09T10:49:21.371Z,99.90
2022-11-09T10:51:39.169Z,99.90
2022-11-09T10:53:40.932Z,99.90
2022-11-09T10:55:51.677Z,99.90
2022-11-09T10:58:01.054Z,99.90
2022-11-09T11:00:04.198Z,99.90
2022-11-09T11:02:24.485Z,99.90
2022-11-09T11:04:28.266Z,99.90
2022-11-09T11:06:31.599Z,99.90
2022-11-09T11:08:42.390Z,99.90
2022-11-09T11:10:44.065Z,99.90
2022-11-09T11:13:11.821Z,99.90
2022-11-09T11:15:38.981Z,99.90
2022-11-09T11:17:42.626Z,99.90
2022-11-09T11:19:45.511Z,99.90
2022-11-09T11:22:07.205Z,99.90
2022-11-09T11:24:27.118Z,99.90
2022-11-09T11:26:58.564Z,99.90
2022-11-09T11:29:05.043Z,99.90
2022-11-09T11:31:12.970Z,99.90
2022-11-09T11:33:19.076Z,99.90
2022-11-09T11:35:45.431Z,99.90
2022-11-09T11:38:05.324Z,99.40
2022-11-09T11:40:22.732Z,99.90
2022-11-09T11:42:36.791Z,99.90
2022-11-09T11:45:33.407Z,99.90
2022-11-09T11:47:38.773Z,99.80
2022-11-09T11:49:58.922Z,99.30
2022-11-09T11:52:20.155Z,96.80
2022-11-09T11:54:33.583Z,98.00
2022-11-09T11:56:40.486Z,98.30
2022-11-09T11:58:47.938Z,98.30
2022-11-09T12:01:00.559Z,97.60
2022-11-09T12:03:17.260Z,96.00
2022-11-09T12:05:30.674Z,96.30
2022-11-09T12:07:57.182Z,95.70
2022-11-09T12:10:12.756Z,95.90
2022-11-09T12:12:26.789Z,95.90
2022-11-09T12:15:05.524Z,96.00
2022-11-09T12:17:15.819Z,93.60
2022-11-09T12:19:36.177Z,94.20
2022-11-09T12:21:57.165Z,94.60
2022-11-09T12:24:28.179Z,94.10
2022-11-09T12:27:10.979Z,93.30
2022-11-09T12:29:23.536Z,93.40
2022-11-09T12:31:40.139Z,93.30
2022-11-09T12:34:09.089Z,93.20
2022-11-09T12:36:16.790Z,92.00
2022-11-09T12:38:34.900Z,92.40
2022-11-09T12:40:49.322Z,92.10
2022-11-09T12:43:05.605Z,92.10
2022-11-09T12:45:16.742Z,92.60
2022-11-09T12:47:25.010Z,92.40
2022-11-09T12:49:41.485Z,91.80
2022-11-09T12:51:43.620Z,91.40
2022-11-09T12:53:45.458Z,92.20
2022-11-09T12:56:00.521Z,92.90
2022-11-09T12:58:02.231Z,93.10
2022-11-09T13:00:04.428Z,92.30
2022-11-09T13:02:06.292Z,92.30
2022-11-09T13:04:08.235Z,92.10
2022-11-09T13:06:20.754Z,92.30
2022-11-09T13:08:30.987Z,91.60
2022-11-09T13:10:35.861Z,92.50
2022-11-09T13:12:40.575Z,92.20
2022-11-09T13:14:42.364Z,92.10
2022-11-09T13:16:44.104Z,91.70
2022-11-09T13:18:47.845Z,91.90
2022-11-09T13:20:56.563Z,92.30
2022-11-09T13:23:01.578Z,93.00
2022-11-09T13:25:24.816Z,93.10
2022-11-09T13:27:35.309Z,91.80
2022-11-09T13:29:39.768Z,91.10
2022-11-09T13:32:00.800Z,91.10
2022-11-09T13:34:41.645Z,90.70
2022-11-09T13:36:43.363Z,91.00
2022-11-09T13:38:45.542Z,91.90
2022-11-09T13:40:52.318Z,92.10
2022-11-09T13:42:57.736Z,92.40
2022-11-09T13:45:31.983Z,92.10
2022-11-09T13:47:36.857Z,91.60
2022-11-09T13:49:38.497Z,92.00
2022-11-09T13:51:46.259Z,91.70
2022-11-09T13:53:58.090Z,91.80
2022-11-09T13:56:20.734Z,92.30
2022-11-09T13:58:34.402Z,92.20
2022-11-09T14:00:36.226Z,92.10
2022-11-09T14:02:37.925Z,92.20
2022-11-09T14:04:43.632Z,92.00
2022-11-09T14:06:45.360Z,91.60
2022-11-09T14:08:47.784Z,91.70
2022-11-09T14:11:33.223Z,91.30
2022-11-09T14:14:03.144Z,90.90
2022-11-09T14:16:45.253Z,91.10
2022-11-09T14:19:01.955Z,91.10
2022-11-09T14:21:45.652Z,91.70
2022-11-09T14:23:48.430Z,92.40
2022-11-09T14:25:50.118Z,93.00
2022-11-09T14:27:57.456Z,93.00
2022-11-09T14:30:03.129Z,93.40
2022-11-09T14:32:27.901Z,92.60
2022-11-09T14:34:29.844Z,91.80
2022-11-09T14:36:34.922Z,92.30
2022-11-09T14:38:45.789Z,92.80
2022-11-09T14:40:48.909Z,92.70
2022-11-09T14:42:55.235Z,93.30
2022-11-09T14:44:58.187Z,93.80
2022-11-09T14:47:00.525Z,93.60
2022-11-09T14:49:04.052Z,94.10
2022-11-09T14:51:07.804Z,93.60
2022-11-09T14:53:16.393Z,93.50
2022-11-09T14:55:20.338Z,93.80
2022-11-09T14:57:23.246Z,94.20
2022-11-09T14:59:34.362Z,94.30
2022-11-09T15:01:36.171Z,94.70
2022-11-09T15:03:38.041Z,95.50
2022-11-09T15:05:40.742Z,96.20
2022-11-09T15:07:45.130Z,96.70
2022-11-09T15:09:48.784Z,97.10
2022-11-09T15:11:52.236Z,97.40
2022-11-09T15:13:54.273Z,97.30
2022-11-09T15:15:56.099Z,97.60
2022-11-09T15:17:57.850Z,98.20
2022-11-09T15:20:03.294Z,98.60
2022-11-09T15:22:05.485Z,99.00
2022-11-09T15:24:09.980Z,99.40
2022-11-09T15:26:48.841Z,99.90
2022-11-09T15:28:51.479Z,99.90
2022-11-09T15:30:53.643Z,99.90
2022-11-09T15:32:55.374Z,99.90
2022-11-09T15:34:59.582Z,99.90
2022-11-09T15:37:01.292Z,99.90
2022-11-09T15:39:09.173Z,99.90
2022-11-09T15:41:17.559Z,99.90
2022-11-09T15:43:19.255Z,99.90
2022-11-09T15:45:21.457Z,99.90
2022-11-09T15:47:33.230Z,99.90
2022-11-09T15:49:34.932Z,99.90
2022-11-09T15:51:36.685Z,99.90
2022-11-09T15:53:39.015Z,99.90
2022-11-09T15:55:41.488Z,99.90
2022-11-09T15:57:43.802Z,99.90
2022-11-09T15:59:49.570Z,99.90
2022-11-09T16:01:51.878Z,99.90
2022-11-09T16:03:53.560Z,99.90
2022-11-09T16:05:55.334Z,99.90
2022-11-09T16:07:57.082Z,99.90
2022-11-09T16:09:58.794Z,99.90
2022-11-09T16:12:00.521Z,99.90
2022-11-09T16:14:02.669Z,99.90
2022-11-09T16:16:10.005Z,99.90
2022-11-09T16:18:11.768Z,99.90
2022-11-09T16:20:13.558Z,99.90
2022-11-09T16:22:15.477Z,99.90
2022-11-09T16:24:17.258Z,99.90
2022-11-09T16:26:20.313Z,99.90
2022-11-09T16:28:23.950Z,99.90
2022-11-09T16:30:25.727Z,99.90
2022-11-09T16:32:27.649Z,99.90
2022-11-09T16:34:29.321Z,99.90
2022-11-09T16:36:31.649Z,99.90
2022-11-09T16:38:41.733Z,99.90
2022-11-09T16:40:44.066Z,99.90
2022-11-09T16:42:46.369Z,99.90
2022-11-09T16:44:49.750Z,99.90
2022-11-09T16:46:52.166Z,99.90
2022-11-09T16:48:54.931Z,99.90
2022-11-09T16:50:56.625Z,99.90
2022-11-09T16:52:58.311Z,99.90
2022-11-09T16:55:00.051Z,99.90
2022-11-09T16:57:02.256Z,99.90
2022-11-09T16:59:04.061Z,99.90
2022-11-09T17:01:15.385Z,99.90
2022-11-09T17:03:19.525Z,99.90
2022-11-09T17:05:21.356Z,99.90
2022-11-09T17:07:23.153Z,99.90
2022-11-09T17:09:24.901Z,99.90
2022-11-09T17:11:26.735Z,99.90
2022-11-09T17:13:28.435Z,99.90
2022-11-09T17:15:30.212Z,99.90
2022-11-09T17:17:31.901Z,99.90
2022-11-09T17:19:35.445Z,99.90
2022-11-09T17:21:37.182Z,99.90
2022-11-09T17:23:39.104Z,99.90
2022-11-09T17:25:41.279Z,99.90
2022-11-09T17:27:42.993Z,99.90
2022-11-09T17:29:44.898Z,99.90
2022-11-09T17:31:46.743Z,99.90
2022-11-09T17:33:48.656Z,99.90
2022-11-09T17:36:02.764Z,99.90
2022-11-09T17:38:04.546Z,99.90
2022-11-09T17:40:06.892Z,99.90
2022-11-09T17:42:08.640Z,99.90
2022-11-09T17:44:10.435Z,99.90
2022-11-09T17:46:20.672Z,99.90
2022-11-09T17:48:22.892Z,99.90
2022-11-09T17:50:24.914Z,99.90
2022-11-09T17:52:26.755Z,99.90
2022-11-09T17:54:33.960Z,99.90
2022-11-09T17:56:38.475Z,99.90
2022-11-09T17:58:45.534Z,99.90
2022-11-09T18:00:47.702Z,99.90
2022-11-09T18:02:49.470Z,99.90
2022-11-09T18:04:51.256Z,99.90
2022-11-09T18:06:52.965Z,99.90
2022-11-09T18:09:26.840Z,99.90
2022-11-09T18:11:18.030Z,99.90
2022-11-09T18:13:19.742Z,99.90
2022-11-09T18:15:21.558Z,99.90
2022-11-09T18:17:23.335Z,99.90
2022-11-09T18:19:25.253Z,99.90
2022-11-09T18:21:28.518Z,99.90
2022-11-09T18:23:30.206Z,99.90
2022-11-09T18:25:31.925Z,99.90
2022-11-09T18:27:33.631Z,99.90
2022-11-09T18:29:35.393Z,99.90
2022-11-09T18:31:37.130Z,99.90
2022-11-09T18:33:40.238Z,99.90
2022-11-09T18:35:41.959Z,99.90
2022-11-09T18:37:47.236Z,99.90
2022-11-09T18:39:49.193Z,99.90
2022-11-09T18:41:52.104Z,99.90
2022-11-09T18:43:58.377Z,99.90
2022-11-09T18:46:02.822Z,99.90
2022-11-09T18:48:04.677Z,99.90
2022-11-09T18:50:06.942Z,99.90
2022-11-09T18:52:08.731Z,99.90
2022-11-09T18:54:10.458Z,99.90
2022-11-09T18:56:21.422Z,99.90
2022-11-09T18:58:23.552Z,99.90
2022-11-09T19:00:25.566Z,99.90
2022-11-09T19:02:27.470Z,99.90
2022-11-09T19:04:29.283Z,99.90
2022-11-09T19:06:31.099Z,99.90
2022-11-09T19:08:51.356Z,99.90
2022-11-09T19:10:53.157Z,99.90
2022-11-09T19:12:55.154Z,99.90
2022-11-09T19:14:56.866Z,99.90
2022-11-09T19:16:58.598Z,99.90
2022-11-09T19:19:00.389Z,99.90
2022-11-09T19:21:02.472Z,99.90
2022-11-09T19:23:04.179Z,99.90
2022-11-09T19:25:06.337Z,99.90
2022-11-09T19:27:08.086Z,99.90
2022-11-09T19:29:11.697Z,99.90
2022-11-09T19:31:18.555Z,99.90
2022-11-09T19:33:20.259Z,99.90
2022-11-09T19:35:26.364Z,99.90
2022-11-09T19:37:29.398Z,99.90
2022-11-09T19:39:34.139Z,99.90
2022-11-09T19:41:37.079Z,99.90
2022-11-09T19:43:38.802Z,99.90
2022-11-09T19:45:41.763Z,99.90
2022-11-09T19:47:43.578Z,99.90
2022-11-09T19:49:45.330Z,99.90
2022-11-09T19:51:47.088Z,99.90
2022-11-09T19:53:53.679Z,99.90
2022-11-09T19:56:04.562Z,99.90
2022-11-09T19:58:06.255Z,99.90
2022-11-09T20:00:09.084Z,99.90
2022-11-09T20:02:10.954Z,99.90
2022-11-09T20:04:12.682Z,99.90
2022-11-09T20:06:14.388Z,99.90
2022-11-09T20:08:16.076Z,99.90
2022-11-09T20:10:17.870Z,99.90
2022-11-09T20:12:38.385Z,99.90
2022-11-09T20:14:40.116Z,99.90
2022-11-09T20:16:44.416Z,99.90
2022-11-09T20:18:46.237Z,99.90
2022-11-09T20:20:47.957Z,99.90
2022-11-09T20:22:49.872Z,99.90
2022-11-09T20:24:51.702Z,99.90
2022-11-09T20:26:53.504Z,99.90
2022-11-09T20:28:55.719Z,99.90
2022-11-09T20:30:57.809Z,99.90
2022-11-09T20:32:59.629Z,99.90
2022-11-09T20:35:01.845Z,99.90
2022-11-09T20:37:03.655Z,99.90
2022-11-09T20:39:05.804Z,99.90
2022-11-09T20:41:10.117Z,99.90
2022-11-09T20:43:11.846Z,99.90
2022-11-09T20:45:15.100Z,99.90
2022-11-09T20:47:35.421Z,99.90
2022-11-09T20:49:39.353Z,99.90
2022-11-09T20:51:41.403Z,99.90
2022-11-09T20:53:44.047Z,99.90
2022-11-09T20:55:46.853Z,99.90
2022-11-09T20:57:48.568Z,99.90
2022-11-09T20:59:50.273Z,99.90
2022-11-09T21:01:52.005Z,99.90
2022-11-09T21:03:54.306Z,99.90
2022-11-09T21:05:59.300Z,99.90
2022-11-09T21:08:01.748Z,99.90
2022-11-09T21:10:03.727Z,99.90
2022-11-09T21:12:24.896Z,99.90
2022-11-09T21:14:26.991Z,99.90
2022-11-09T21:16:29.183Z,99.90
2022-11-09T21:18:30.984Z,99.90
2022-11-09T21:20:33.675Z,99.90
2022-11-09T21:22:54.309Z,99.90
2022-11-09T21:25:14.740Z,99.90
2022-11-09T21:27:35.101Z,99.90
2022-11-09T21:29:52.013Z,99.90
2022-11-09T21:31:53.812Z,99.90
2022-11-09T21:33:55.519Z,99.90
2022-11-09T21:35:57.376Z,99.90
2022-11-09T21:37:59.141Z,99.90
2022-11-09T21:40:00.939Z,99.90
2022-11-09T21:42:03.875Z,99.90
2022-11-09T21:44:08.105Z,99.90
2022-11-09T21:46:09.803Z,99.90
2022-11-09T21:48:11.537Z,99.90
2022-11-09T21:50:13.290Z,99.90
2022-11-09T21:52:15.008Z,99.90
2022-11-09T21:54:16.965Z,99.90
2022-11-09T21:56:18.912Z,99.90
2022-11-09T21:58:20.690Z,99.90
2022-11-09T22:00:22.424Z,99.90
2022-11-09T22:02:24.128Z,99.90
2022-11-09T22:04:25.863Z,99.90
2022-11-09T22:06:27.776Z,99.90
2022-11-09T22:08:29.906Z,99.90
2022-11-09T22:10:31.682Z,99.90
2022-11-09T22:12:51.984Z,99.90
2022-11-09T22:15:12.143Z,99.90
2022-11-09T22:17:14.836Z,99.90
2022-11-09T22:19:35.295Z,99.90
2022-11-09T22:21:37.118Z,99.90
2022-11-09T22:23:38.823Z,99.90
2022-11-09T22:25:45.246Z,99.90
2022-11-09T22:27:49.399Z,99.90
2022-11-09T22:29:51.460Z,99.90
2022-11-09T22:31:53.257Z,99.90
2022-11-09T22:33:55.158Z,99.90
2022-11-09T22:35:59.513Z,99.90
2022-11-09T22:38:02.460Z,99.90
2022-11-09T22:40:04.486Z,99.90
2022-11-09T22:42:06.354Z,99.90
2022-11-09T22:44:08.210Z,99.90
2022-11-09T22:46:11.161Z,99.90
2022-11-09T22:48:12.863Z,99.90
2022-11-09T22:50:14.597Z,99.90
2022-11-09T22:52:17.972Z,99.90
2022-11-09T22:54:22.433Z,99.90
2022-11-09T22:56:24.211Z,99.90
2022-11-09T22:58:26.977Z,99.90
2022-11-09T23:00:28.625Z,99.90
2022-11-09T23:02:30.341Z,99.90
2022-11-09T23:04:32.332Z,99.90
2022-11-09T23:06:34.155Z,99.90
2022-11-09T23:08:39.233Z,99.90
2022-11-09T23:10:40.950Z,99.90
2022-11-09T23:12:42.651Z,99.90
2022-11-09T23:15:02.779Z,99.90
2022-11-09T23:17:24.480Z,99.90
2022-11-09T23:19:26.183Z,99.90
2022-11-09T23:21:34.716Z,99.90
2022-11-09T23:23:37.076Z,99.90
2022-11-09T23:25:53.978Z,99.90
2022-11-09T23:27:56.248Z,99.90
2022-11-09T23:29:57.992Z,99.90
2022-11-09T23:31:59.801Z,99.90
2022-11-09T23:34:04.757Z,99.90
2022-11-09T23:36:09.803Z,99.90
2022-11-09T23:38:11.659Z,99.90
2022-11-09T23:40:13.688Z,99.90
2022-11-09T23:42:15.385Z,99.90
2022-11-09T23:44:17.089Z,99.90
2022-11-09T23:46:18.796Z,99.90
2022-11-09T23:48:20.575Z,99.90
2022-11-09T23:50:22.357Z,99.90
2022-11-09T23:52:24.070Z,99.90
2022-11-09T23:54:25.783Z,99.90
2022-11-09T23:56:27.474Z,99.90
2022-11-09T23:58:29.812Z,99.90
